Terminal Aerodrome Forecast
Issued by NWS

Home | Current Version | Previous Version | Text Only | Print | Product List | Glossary Off
Versions: 1 2 3 4 5 6 7 8 9 10 11 12 13 14 15 16 17

000
FTUS41 KCLE 022328
TAFFDY
TAF
KFDY 022328Z 0300/0324 28008KT P6SM SCT020 BKN035
      TEMPO 0300/0302 BKN020
     FM031000 26005KT P6SM BKN022
     FM032000 27007KT P6SM BKN040=

USA.gov is the U.S. government's official web portal to all federal, state and local government web resources and services.